sensor_id;sensor_type;location;lat;lon;timestamp;temperature;humidity
69932;DHT22;57243;52.064;5.116;2023-04-01T00:01:21;16.60;70.00
69932;DHT22;57243;52.064;5.116;2023-04-01T00:03:47;16.70;70.10
69932;DHT22;57243;52.064;5.116;2023-04-01T00:06:14;16.60;70.00
69932;DHT22;57243;52.064;5.116;2023-04-01T00:08:40;16.60;69.90
69932;DHT22;57243;52.064;5.116;2023-04-01T00:11:06;16.60;70.00
69932;DHT22;57243;52.064;5.116;2023-04-01T00:13:31;16.60;70.00
69932;DHT22;57243;52.064;5.116;2023-04-01T00:15:57;16.60;70.00
69932;DHT22;57243;52.064;5.116;2023-04-01T00:18:23;16.60;69.90
69932;DHT22;57243;52.064;5.116;2023-04-01T00:20:49;16.60;70.00
69932;DHT22;57243;52.064;5.116;2023-04-01T00:23:16;16.70;69.90
69932;DHT22;57243;52.064;5.116;2023-04-01T00:25:41;16.60;69.90
69932;DHT22;57243;52.064;5.116;2023-04-01T00:28:07;16.60;69.90
69932;DHT22;57243;52.064;5.116;2023-04-01T00:30:32;16.60;70.00
69932;DHT22;57243;52.064;5.116;2023-04-01T00:32:58;16.60;70.00
69932;DHT22;57243;52.064;5.116;2023-04-01T00:35:25;16.60;69.90
69932;DHT22;57243;52.064;5.116;2023-04-01T00:37:51;16.60;69.90
69932;DHT22;57243;52.064;5.116;2023-04-01T00:40:36;16.60;69.90
69932;DHT22;57243;52.064;5.116;2023-04-01T00:43:03;16.60;70.20
69932;DHT22;57243;52.064;5.116;2023-04-01T00:45:33;16.60;69.90
69932;DHT22;57243;52.064;5.116;2023-04-01T00:48:01;16.60;69.90
69932;DHT22;57243;52.064;5.116;2023-04-01T00:50:27;16.60;70.10
69932;DHT22;57243;52.064;5.116;2023-04-01T00:52:53;16.60;69.90
69932;DHT22;57243;52.064;5.116;2023-04-01T00:55:19;16.60;69.80
69932;DHT22;57243;52.064;5.116;2023-04-01T00:57:45;16.60;69.80
69932;DHT22;57243;52.064;5.116;2023-04-01T01:00:11;16.60;69.70
69932;DHT22;57243;52.064;5.116;2023-04-01T01:02:40;16.60;70.00
69932;DHT22;57243;52.064;5.116;2023-04-01T01:05:06;16.60;69.90
69932;DHT22;57243;52.064;5.116;2023-04-01T01:10:23;16.60;69.90
69932;DHT22;57243;52.064;5.116;2023-04-01T01:25:50;16.60;69.90
69932;DHT22;57243;52.064;5.116;2023-04-01T01:28:26;16.60;69.70
69932;DHT22;57243;52.064;5.116;2023-04-01T01:35:54;16.60;69.90
69932;DHT22;57243;52.064;5.116;2023-04-01T01:38:24;16.60;69.70
69932;DHT22;57243;52.064;5.116;2023-04-01T01:40:52;16.60;69.90
69932;DHT22;57243;52.064;5.116;2023-04-01T01:43:22;16.60;69.80
69932;DHT22;57243;52.064;5.116;2023-04-01T01:45:51;16.60;69.90
69932;DHT22;57243;52.064;5.116;2023-04-01T01:48:17;16.60;69.60
69932;DHT22;57243;52.064;5.116;2023-04-01T01:50:44;16.50;69.90
69932;DHT22;57243;52.064;5.116;2023-04-01T01:53:11;16.60;69.70
69932;DHT22;57243;52.064;5.116;2023-04-01T01:55:41;16.60;70.00
69932;DHT22;57243;52.064;5.116;2023-04-01T01:58:16;16.60;69.80
69932;DHT22;57243;52.064;5.116;2023-04-01T02:00:43;16.60;69.80
69932;DHT22;57243;52.064;5.116;2023-04-01T02:03:10;16.60;69.80
69932;DHT22;57243;52.064;5.116;2023-04-01T02:05:37;16.60;69.80
69932;DHT22;57243;52.064;5.116;2023-04-01T02:08:11;16.60;69.70
69932;DHT22;57243;52.064;5.116;2023-04-01T02:10:40;16.50;69.70
69932;DHT22;57243;52.064;5.116;2023-04-01T02:13:13;16.60;69.60
69932;DHT22;57243;52.064;5.116;2023-04-01T02:15:42;16.50;69.60
69932;DHT22;57243;52.064;5.116;2023-04-01T02:18:08;16.50;69.70
69932;DHT22;57243;52.064;5.116;2023-04-01T02:20:34;16.50;69.70
69932;DHT22;57243;52.064;5.116;2023-04-01T02:23:01;16.50;69.60
69932;DHT22;57243;52.064;5.116;2023-04-01T02:25:28;16.50;69.60
69932;DHT22;57243;52.064;5.116;2023-04-01T02:27:53;16.50;69.60
69932;DHT22;57243;52.064;5.116;2023-04-01T02:30:20;16.50;69.60
69932;DHT22;57243;52.064;5.116;2023-04-01T02:32:46;16.50;69.80
69932;DHT22;57243;52.064;5.116;2023-04-01T02:35:12;16.50;69.60
69932;DHT22;57243;52.064;5.116;2023-04-01T02:37:39;16.50;69.80
69932;DHT22;57243;52.064;5.116;2023-04-01T02:40:08;16.50;69.60
69932;DHT22;57243;52.064;5.116;2023-04-01T02:42:34;16.50;69.70
69932;DHT22;57243;52.064;5.116;2023-04-01T02:44:59;16.50;69.60
69932;DHT22;57243;52.064;5.116;2023-04-01T02:47:25;16.50;69.70
69932;DHT22;57243;52.064;5.116;2023-04-01T02:49:51;16.50;69.80
69932;DHT22;57243;52.064;5.116;2023-04-01T02:52:16;16.50;69.70
69932;DHT22;57243;52.064;5.116;2023-04-01T02:54:42;16.60;69.60
69932;DHT22;57243;52.064;5.116;2023-04-01T02:57:07;16.60;69.80
69932;DHT22;57243;52.064;5.116;2023-04-01T02:59:33;16.60;69.60
69932;DHT22;57243;52.064;5.116;2023-04-01T03:01:58;16.50;69.50
69932;DHT22;57243;52.064;5.116;2023-04-01T03:04:24;16.60;69.60
69932;DHT22;57243;52.064;5.116;2023-04-01T03:06:49;16.50;69.50
69932;DHT22;57243;52.064;5.116;2023-04-01T03:09:15;16.50;69.80
69932;DHT22;57243;52.064;5.116;2023-04-01T03:11:41;16.60;69.60
69932;DHT22;57243;52.064;5.116;2023-04-01T03:14:06;16.50;69.70
69932;DHT22;57243;52.064;5.116;2023-04-01T03:16:32;16.50;69.60
69932;DHT22;57243;52.064;5.116;2023-04-01T03:18:58;16.50;69.70
69932;DHT22;57243;52.064;5.116;2023-04-01T03:21:25;16.50;69.60
69932;DHT22;57243;52.064;5.116;2023-04-01T03:23:50;16.50;69.50
69932;DHT22;57243;52.064;5.116;2023-04-01T03:26:16;16.50;69.60
69932;DHT22;57243;52.064;5.116;2023-04-01T03:28:42;16.50;69.60
69932;DHT22;57243;52.064;5.116;2023-04-01T03:31:08;16.50;69.70
69932;DHT22;57243;52.064;5.116;2023-04-01T03:33:33;16.50;69.70
69932;DHT22;57243;52.064;5.116;2023-04-01T03:35:59;16.50;69.60
69932;DHT22;57243;52.064;5.116;2023-04-01T03:38:24;16.50;69.60
69932;DHT22;57243;52.064;5.116;2023-04-01T03:40:50;16.50;69.50
69932;DHT22;57243;52.064;5.116;2023-04-01T03:43:15;16.50;69.70
69932;DHT22;57243;52.064;5.116;2023-04-01T03:45:45;16.50;69.50
69932;DHT22;57243;52.064;5.116;2023-04-01T03:48:10;16.50;69.70
69932;DHT22;57243;52.064;5.116;2023-04-01T03:50:36;16.50;69.60
69932;DHT22;57243;52.064;5.116;2023-04-01T03:53:02;16.50;69.50
69932;DHT22;57243;52.064;5.116;2023-04-01T03:55:27;16.50;69.70
69932;DHT22;57243;52.064;5.116;2023-04-01T03:57:53;16.50;69.60
69932;DHT22;57243;52.064;5.116;2023-04-01T04:00:18;16.50;69.50
69932;DHT22;57243;52.064;5.116;2023-04-01T04:02:44;16.50;69.50
69932;DHT22;57243;52.064;5.116;2023-04-01T04:05:09;16.50;69.50
69932;DHT22;57243;52.064;5.116;2023-04-01T04:07:35;16.50;69.60
69932;DHT22;57243;52.064;5.116;2023-04-01T04:10:01;16.50;69.70
69932;DHT22;57243;52.064;5.116;2023-04-01T04:12:27;16.50;69.60
69932;DHT22;57243;52.064;5.116;2023-04-01T04:14:52;16.50;69.60
69932;DHT22;57243;52.064;5.116;2023-04-01T04:17:17;16.50;69.60
69932;DHT22;57243;52.064;5.116;2023-04-01T04:19:43;16.50;69.50
69932;DHT22;57243;52.064;5.116;2023-04-01T04:22:08;16.50;69.50
69932;DHT22;57243;52.064;5.116;2023-04-01T04:24:34;16.50;69.60
69932;DHT22;57243;52.064;5.116;2023-04-01T04:27:00;16.50;69.60
69932;DHT22;57243;52.064;5.116;2023-04-01T04:29:26;16.50;69.70
69932;DHT22;57243;52.064;5.116;2023-04-01T04:31:51;16.50;69.60
69932;DHT22;57243;52.064;5.116;2023-04-01T04:34:16;16.50;69.60
69932;DHT22;57243;52.064;5.116;2023-04-01T04:36:43;16.50;69.50
69932;DHT22;57243;52.064;5.116;2023-04-01T04:39:09;16.50;69.70
69932;DHT22;57243;52.064;5.116;2023-04-01T04:41:36;16.50;69.70
69932;DHT22;57243;52.064;5.116;2023-04-01T04:44:02;16.50;69.60
69932;DHT22;57243;52.064;5.116;2023-04-01T04:46:27;16.50;69.60
69932;DHT22;57243;52.064;5.116;2023-04-01T04:48:53;16.50;69.60
69932;DHT22;57243;52.064;5.116;2023-04-01T04:51:18;16.50;69.70
69932;DHT22;57243;52.064;5.116;2023-04-01T04:53:47;16.50;69.80
69932;DHT22;57243;52.064;5.116;2023-04-01T04:56:13;16.50;69.60
69932;DHT22;57243;52.064;5.116;2023-04-01T04:58:38;16.50;69.50
69932;DHT22;57243;52.064;5.116;2023-04-01T05:01:13;16.50;69.60
69932;DHT22;57243;52.064;5.116;2023-04-01T05:03:38;16.50;69.80
69932;DHT22;57243;52.064;5.116;2023-04-01T05:06:05;16.50;69.60
69932;DHT22;57243;52.064;5.116;2023-04-01T05:08:30;16.50;69.70
69932;DHT22;57243;52.064;5.116;2023-04-01T05:10:56;16.50;69.70
69932;DHT22;57243;52.064;5.116;2023-04-01T05:13:21;16.50;69.70
69932;DHT22;57243;52.064;5.116;2023-04-01T05:15:47;16.50;69.70
69932;DHT22;57243;52.064;5.116;2023-04-01T05:18:12;16.50;69.60
69932;DHT22;57243;52.064;5.116;2023-04-01T05:20:38;16.50;69.80
69932;DHT22;57243;52.064;5.116;2023-04-01T05:23:04;16.50;69.90
69932;DHT22;57243;52.064;5.116;2023-04-01T05:25:29;16.50;69.70
69932;DHT22;57243;52.064;5.116;2023-04-01T05:27:55;16.50;69.60
69932;DHT22;57243;52.064;5.116;2023-04-01T05:30:21;16.50;69.60
69932;DHT22;57243;52.064;5.116;2023-04-01T05:32:46;16.50;69.80
69932;DHT22;57243;52.064;5.116;2023-04-01T05:35:12;16.50;70.40
69932;DHT22;57243;52.064;5.116;2023-04-01T05:37:39;16.70;71.30
69932;DHT22;57243;52.064;5.116;2023-04-01T05:40:05;16.90;71.30
69932;DHT22;57243;52.064;5.116;2023-04-01T05:42:31;17.00;71.20
69932;DHT22;57243;52.064;5.116;2023-04-01T05:44:56;16.90;70.70
69932;DHT22;57243;52.064;5.116;2023-04-01T05:47:22;16.80;70.70
69932;DHT22;57243;52.064;5.116;2023-04-01T05:49:47;16.80;70.90
69932;DHT22;57243;52.064;5.116;2023-04-01T05:52:13;16.80;70.70
69932;DHT22;57243;52.064;5.116;2023-04-01T05:54:39;16.80;70.50
69932;DHT22;57243;52.064;5.116;2023-04-01T05:57:04;16.80;70.60
69932;DHT22;57243;52.064;5.116;2023-04-01T05:59:30;16.80;70.40
69932;DHT22;57243;52.064;5.116;2023-04-01T06:01:59;16.70;70.70
69932;DHT22;57243;52.064;5.116;2023-04-01T06:04:24;16.70;70.50
69932;DHT22;57243;52.064;5.116;2023-04-01T06:06:53;16.70;70.50
69932;DHT22;57243;52.064;5.116;2023-04-01T06:09:19;16.70;70.30
69932;DHT22;57243;52.064;5.116;2023-04-01T06:19:29;16.70;70.40
69932;DHT22;57243;52.064;5.116;2023-04-01T06:24:55;16.60;71.30
69932;DHT22;57243;52.064;5.116;2023-04-01T06:30:24;16.70;71.10
69932;DHT22;57243;52.064;5.116;2023-04-01T06:46:10;16.50;70.50
69932;DHT22;57243;52.064;5.116;2023-04-01T06:51:24;16.40;70.40
69932;DHT22;57243;52.064;5.116;2023-04-01T06:54:11;16.40;70.30
69932;DHT22;57243;52.064;5.116;2023-04-01T06:56:41;16.40;70.40
69932;DHT22;57243;52.064;5.116;2023-04-01T06:59:17;16.40;70.30
69932;DHT22;57243;52.064;5.116;2023-04-01T07:01:49;16.40;70.30
69932;DHT22;57243;52.064;5.116;2023-04-01T07:04:17;16.40;70.20
69932;DHT22;57243;52.064;5.116;2023-04-01T07:09:19;16.40;70.20
69932;DHT22;57243;52.064;5.116;2023-04-01T07:11:45;16.40;70.20
69932;DHT22;57243;52.064;5.116;2023-04-01T07:16:45;16.40;70.10
69932;DHT22;57243;52.064;5.116;2023-04-01T07:19:15;16.30;70.00
69932;DHT22;57243;52.064;5.116;2023-04-01T07:21:47;16.40;70.00
69932;DHT22;57243;52.064;5.116;2023-04-01T07:24:15;16.30;69.90
69932;DHT22;57243;52.064;5.116;2023-04-01T07:26:42;16.30;69.80
69932;DHT22;57243;52.064;5.116;2023-04-01T07:29:12;16.30;69.90
69932;DHT22;57243;52.064;5.116;2023-04-01T07:32:11;16.30;69.80
69932;DHT22;57243;52.064;5.116;2023-04-01T07:34:54;16.30;69.80
69932;DHT22;57243;52.064;5.116;2023-04-01T07:48:15;16.50;70.20
69932;DHT22;57243;52.064;5.116;2023-04-01T07:51:03;16.50;70.00
69932;DHT22;57243;52.064;5.116;2023-04-01T08:04:18;16.40;69.60
69932;DHT22;57243;52.064;5.116;2023-04-01T08:06:53;16.40;69.60
69932;DHT22;57243;52.064;5.116;2023-04-01T08:09:36;16.40;69.60
69932;DHT22;57243;52.064;5.116;2023-04-01T08:12:16;16.40;69.60
69932;DHT22;57243;52.064;5.116;2023-04-01T08:14:52;16.40;69.60
69932;DHT22;57243;52.064;5.116;2023-04-01T08:17:20;16.40;69.50
69932;DHT22;57243;52.064;5.116;2023-04-01T08:22:28;16.40;69.50
69932;DHT22;57243;52.064;5.116;2023-04-01T08:24:54;16.40;69.40
69932;DHT22;57243;52.064;5.116;2023-04-01T08:29:58;16.80;72.40
69932;DHT22;57243;52.064;5.116;2023-04-01T08:32:32;16.80;71.50
69932;DHT22;57243;52.064;5.116;2023-04-01T08:37:41;16.80;71.30
69932;DHT22;57243;52.064;5.116;2023-04-01T08:40:16;16.80;71.50
69932;DHT22;57243;52.064;5.116;2023-04-01T08:42:53;16.80;71.40
69932;DHT22;57243;52.064;5.116;2023-04-01T08:45:30;16.80;71.40
69932;DHT22;57243;52.064;5.116;2023-04-01T08:58:51;16.70;70.80
69932;DHT22;57243;52.064;5.116;2023-04-01T09:17:27;16.50;70.10
69932;DHT22;57243;52.064;5.116;2023-04-01T09:22:37;16.50;69.80
69932;DHT22;57243;52.064;5.116;2023-04-01T09:25:12;16.60;69.80
69932;DHT22;57243;52.064;5.116;2023-04-01T09:40:37;16.60;69.40
69932;DHT22;57243;52.064;5.116;2023-04-01T09:43:14;16.60;69.90
69932;DHT22;57243;52.064;5.116;2023-04-01T09:58:28;17.20;73.50
69932;DHT22;57243;52.064;5.116;2023-04-01T10:03:31;17.10;73.10
69932;DHT22;57243;52.064;5.116;2023-04-01T10:06:16;17.00;73.20
69932;DHT22;57243;52.064;5.116;2023-04-01T10:14:36;16.90;73.50
69932;DHT22;57243;52.064;5.116;2023-04-01T10:28:06;16.90;73.40
69932;DHT22;57243;52.064;5.116;2023-04-01T10:30:42;16.90;73.50
69932;DHT22;57243;52.064;5.116;2023-04-01T10:38:42;17.00;74.00
69932;DHT22;57243;52.064;5.116;2023-04-01T10:41:29;17.00;73.40
69932;DHT22;57243;52.064;5.116;2023-04-01T10:44:18;17.00;73.30
69932;DHT22;57243;52.064;5.116;2023-04-01T10:49:27;17.00;73.30
69932;DHT22;57243;52.064;5.116;2023-04-01T11:00:10;16.90;72.80
69932;DHT22;57243;52.064;5.116;2023-04-01T11:16:19;16.90;73.40
69932;DHT22;57243;52.064;5.116;2023-04-01T11:18:55;17.00;73.40
69932;DHT22;57243;52.064;5.116;2023-04-01T11:24:15;17.00;73.50
69932;DHT22;57243;52.064;5.116;2023-04-01T11:42:40;17.00;73.10
69932;DHT22;57243;52.064;5.116;2023-04-01T11:47:45;17.00;73.00
69932;DHT22;57243;52.064;5.116;2023-04-01T11:53:02;17.00;72.90
69932;DHT22;57243;52.064;5.116;2023-04-01T11:58:08;17.00;72.90
69932;DHT22;57243;52.064;5.116;2023-04-01T12:00:50;17.00;72.80
69932;DHT22;57243;52.064;5.116;2023-04-01T12:03:34;17.00;72.90
69932;DHT22;57243;52.064;5.116;2023-04-01T12:09:11;17.00;72.50
69932;DHT22;57243;52.064;5.116;2023-04-01T12:16:38;17.00;72.40
69932;DHT22;57243;52.064;5.116;2023-04-01T12:41:21;17.00;72.00
69932;DHT22;57243;52.064;5.116;2023-04-01T12:44:04;17.00;72.10
69932;DHT22;57243;52.064;5.116;2023-04-01T12:46:39;17.00;71.80
69932;DHT22;57243;52.064;5.116;2023-04-01T12:49:13;17.00;71.70
69932;DHT22;57243;52.064;5.116;2023-04-01T12:57:03;17.00;71.00
69932;DHT22;57243;52.064;5.116;2023-04-01T13:09:48;16.90;71.20
69932;DHT22;57243;52.064;5.116;2023-04-01T13:12:29;16.90;70.80
69932;DHT22;57243;52.064;5.116;2023-04-01T13:27:47;17.00;71.40
69932;DHT22;57243;52.064;5.116;2023-04-01T13:32:54;17.00;71.40
69932;DHT22;57243;52.064;5.116;2023-04-01T13:35:26;17.00;71.20
69932;DHT22;57243;52.064;5.116;2023-04-01T13:38:02;17.00;71.00
69932;DHT22;57243;52.064;5.116;2023-04-01T13:43:10;17.00;70.30
69932;DHT22;57243;52.064;5.116;2023-04-01T13:45:42;17.00;70.00
69932;DHT22;57243;52.064;5.116;2023-04-01T13:48:18;17.00;69.70
69932;DHT22;57243;52.064;5.116;2023-04-01T13:53:33;17.00;69.40
69932;DHT22;57243;52.064;5.116;2023-04-01T14:01:09;16.90;69.40
69932;DHT22;57243;52.064;5.116;2023-04-01T14:13:56;16.90;69.50
69932;DHT22;57243;52.064;5.116;2023-04-01T14:29:16;16.80;69.90
69932;DHT22;57243;52.064;5.116;2023-04-01T14:34:44;16.80;69.80
69932;DHT22;57243;52.064;5.116;2023-04-01T14:47:53;16.80;69.90
69932;DHT22;57243;52.064;5.116;2023-04-01T14:50:21;16.80;70.00
69932;DHT22;57243;52.064;5.116;2023-04-01T14:55:41;16.80;69.80
69932;DHT22;57243;52.064;5.116;2023-04-01T14:58:10;16.80;70.50
69932;DHT22;57243;52.064;5.116;2023-04-01T15:03:32;16.90;72.30
69932;DHT22;57243;52.064;5.116;2023-04-01T15:32:19;16.80;72.40
69932;DHT22;57243;52.064;5.116;2023-04-01T15:34:50;16.70;72.30
69932;DHT22;57243;52.064;5.116;2023-04-01T15:42:43;16.70;72.90
69932;DHT22;57243;52.064;5.116;2023-04-01T15:45:14;16.70;73.00
69932;DHT22;57243;52.064;5.116;2023-04-01T15:57:52;16.70;72.80
69932;DHT22;57243;52.064;5.116;2023-04-01T16:00:25;16.70;72.70
69932;DHT22;57243;52.064;5.116;2023-04-01T16:16:00;16.60;72.50
69932;DHT22;57243;52.064;5.116;2023-04-01T16:23:46;16.60;72.20
69932;DHT22;57243;52.064;5.116;2023-04-01T16:28:40;16.60;72.00
69932;DHT22;57243;52.064;5.116;2023-04-01T16:36:32;16.50;72.30
69932;DHT22;57243;52.064;5.116;2023-04-01T16:41:26;16.50;72.00
69932;DHT22;57243;52.064;5.116;2023-04-01T16:43:57;16.50;72.40
69932;DHT22;57243;52.064;5.116;2023-04-01T16:46:31;16.50;72.00
69932;DHT22;57243;52.064;5.116;2023-04-01T16:51:22;16.50;72.50
69932;DHT22;57243;52.064;5.116;2023-04-01T16:56:42;16.50;71.70
69932;DHT22;57243;52.064;5.116;2023-04-01T17:19:56;16.40;71.90
69932;DHT22;57243;52.064;5.116;2023-04-01T17:27:59;16.50;72.20
69932;DHT22;57243;52.064;5.116;2023-04-01T17:30:33;16.40;72.10
69932;DHT22;57243;52.064;5.116;2023-04-01T17:36:05;16.40;71.60
69932;DHT22;57243;52.064;5.116;2023-04-01T17:38:54;16.40;71.50
69932;DHT22;57243;52.064;5.116;2023-04-01T17:51:38;16.30;71.60
69932;DHT22;57243;52.064;5.116;2023-04-01T17:54:15;16.30;71.40
69932;DHT22;57243;52.064;5.116;2023-04-01T18:01:53;16.30;71.30
69932;DHT22;57243;52.064;5.116;2023-04-01T18:04:30;16.50;72.90
69932;DHT22;57243;52.064;5.116;2023-04-01T18:12:11;16.80;72.00
69932;DHT22;57243;52.064;5.116;2023-04-01T18:20:06;16.90;72.40
69932;DHT22;57243;52.064;5.116;2023-04-01T18:22:44;17.00;72.60
69932;DHT22;57243;52.064;5.116;2023-04-01T18:30:39;17.00;71.90
69932;DHT22;57243;52.064;5.116;2023-04-01T18:36:21;16.90;71.50
69932;DHT22;57243;52.064;5.116;2023-04-01T18:38:25;16.80;72.10
69932;DHT22;57243;52.064;5.116;2023-04-01T18:43:42;16.80;72.10
69932;DHT22;57243;52.064;5.116;2023-04-01T18:48:40;16.70;72.20
69932;DHT22;57243;52.064;5.116;2023-04-01T18:51:26;16.70;72.10
69932;DHT22;57243;52.064;5.116;2023-04-01T18:54:05;16.60;71.70
69932;DHT22;57243;52.064;5.116;2023-04-01T18:56:45;16.60;71.70
69932;DHT22;57243;52.064;5.116;2023-04-01T19:02:36;16.60;71.70
69932;DHT22;57243;52.064;5.116;2023-04-01T19:05:11;16.60;71.80
69932;DHT22;57243;52.064;5.116;2023-04-01T19:07:50;16.60;71.60
69932;DHT22;57243;52.064;5.116;2023-04-01T19:10:17;16.60;71.70
69932;DHT22;57243;52.064;5.116;2023-04-01T19:15:31;16.50;71.40
69932;DHT22;57243;52.064;5.116;2023-04-01T19:20:43;16.50;71.30
69932;DHT22;57243;52.064;5.116;2023-04-01T19:25:55;16.50;71.20
69932;DHT22;57243;52.064;5.116;2023-04-01T19:36:19;16.50;70.80
69932;DHT22;57243;52.064;5.116;2023-04-01T19:38:52;16.50;71.20
69932;DHT22;57243;52.064;5.116;2023-04-01T19:44:27;16.50;70.70
69932;DHT22;57243;52.064;5.116;2023-04-01T19:47:01;16.50;70.80
69932;DHT22;57243;52.064;5.116;2023-04-01T19:49:45;16.50;71.00
69932;DHT22;57243;52.064;5.116;2023-04-01T19:52:26;16.50;70.70
69932;DHT22;57243;52.064;5.116;2023-04-01T19:55:07;16.50;70.40
69932;DHT22;57243;52.064;5.116;2023-04-01T19:57:43;16.50;70.70
69932;DHT22;57243;52.064;5.116;2023-04-01T20:01:14;16.40;70.80
69932;DHT22;57243;52.064;5.116;2023-04-01T20:08:36;16.40;70.40
69932;DHT22;57243;52.064;5.116;2023-04-01T20:16:43;16.40;70.40
69932;DHT22;57243;52.064;5.116;2023-04-01T20:19:13;16.40;70.40
69932;DHT22;57243;52.064;5.116;2023-04-01T20:24:06;16.40;70.00
69932;DHT22;57243;52.064;5.116;2023-04-01T20:26:39;16.40;70.10
69932;DHT22;57243;52.064;5.116;2023-04-01T20:31:40;16.40;69.80
69932;DHT22;57243;52.064;5.116;2023-04-01T20:52:02;16.70;71.50
69932;DHT22;57243;52.064;5.116;2023-04-01T20:54:55;16.70;71.70
69932;DHT22;57243;52.064;5.116;2023-04-01T20:59:54;16.70;71.20
69932;DHT22;57243;52.064;5.116;2023-04-01T21:02:36;16.60;70.80
69932;DHT22;57243;52.064;5.116;2023-04-01T21:07:53;16.50;71.00
69932;DHT22;57243;52.064;5.116;2023-04-01T21:26:12;16.40;69.50
69932;DHT22;57243;52.064;5.116;2023-04-01T21:28:52;16.30;69.90
69932;DHT22;57243;52.064;5.116;2023-04-01T21:31:26;16.30;69.90
69932;DHT22;57243;52.064;5.116;2023-04-01T21:36:43;16.20;69.60
69932;DHT22;57243;52.064;5.116;2023-04-01T22:07:21;16.30;69.40
69932;DHT22;57243;52.064;5.116;2023-04-01T22:12:35;16.30;69.40
69932;DHT22;57243;52.064;5.116;2023-04-01T22:25:15;16.20;68.60
69932;DHT22;57243;52.064;5.116;2023-04-01T22:30:30;16.20;68.90
69932;DHT22;57243;52.064;5.116;2023-04-01T22:41:01;16.20;68.80
69932;DHT22;57243;52.064;5.116;2023-04-01T22:43:41;16.20;68.70
69932;DHT22;57243;52.064;5.116;2023-04-01T22:48:51;16.20;68.70
69932;DHT22;57243;52.064;5.116;2023-04-01T22:52:09;16.20;68.10
69932;DHT22;57243;52.064;5.116;2023-04-01T22:56:36;16.20;68.10
69932;DHT22;57243;52.064;5.116;2023-04-01T22:59:06;16.20;68.20
69932;DHT22;57243;52.064;5.116;2023-04-01T23:01:34;16.10;68.10
69932;DHT22;57243;52.064;5.116;2023-04-01T23:04:03;16.20;68.30
69932;DHT22;57243;52.064;5.116;2023-04-01T23:06:31;16.20;68.40
69932;DHT22;57243;52.064;5.116;2023-04-01T23:11:30;16.20;67.80
69932;DHT22;57243;52.064;5.116;2023-04-01T23:14:58;16.10;67.90
69932;DHT22;57243;52.064;5.116;2023-04-01T23:24:40;16.20;68.00
69932;DHT22;57243;52.064;5.116;2023-04-01T23:27:42;16.20;68.10
69932;DHT22;57243;52.064;5.116;2023-04-01T23:30:00;16.20;67.90
69932;DHT22;57243;52.064;5.116;2023-04-01T23:32:26;16.10;67.70
69932;DHT22;57243;52.064;5.116;2023-04-01T23:34:52;16.10;68.00
69932;DHT22;57243;52.064;5.116;2023-04-01T23:37:19;16.20;67.50
69932;DHT22;57243;52.064;5.116;2023-04-01T23:39:45;16.10;67.60
69932;DHT22;57243;52.064;5.116;2023-04-01T23:42:22;16.10;67.30
69932;DHT22;57243;52.064;5.116;2023-04-01T23:44:48;16.10;67.50
69932;DHT22;57243;52.064;5.116;2023-04-01T23:47:19;16.10;67.50
69932;DHT22;57243;52.064;5.116;2023-04-01T23:49:46;16.00;67.70
69932;DHT22;57243;52.064;5.116;2023-04-01T23:52:30;16.10;67.30
69932;DHT22;57243;52.064;5.116;2023-04-01T23:57:34;16.10;67.80
